createdAt,value
2022-11-29T00:01:02.907Z,19.95
2022-11-29T00:03:30.536Z,19.63
2022-11-29T00:05:58.346Z,19.13
2022-11-29T00:08:25.928Z,20.40
2022-11-29T00:10:53.742Z,23.27
2022-11-29T00:13:21.224Z,22.58
2022-11-29T00:15:48.751Z,24.35
2022-11-29T00:18:16.787Z,22.48
2022-11-29T00:20:44.317Z,21.70
2022-11-29T00:23:11.904Z,17.83
2022-11-29T00:25:39.754Z,17.40
2022-11-29T00:28:07.264Z,21.88
2022-11-29T00:30:34.852Z,19.08
2022-11-29T00:33:03.637Z,20.23
2022-11-29T00:35:31.277Z,21.60
2022-11-29T00:37:59.125Z,19.15
2022-11-29T00:40:26.775Z,21.17
2022-11-29T00:42:54.326Z,18.50
2022-11-29T00:45:21.834Z,21.42
2022-11-29T00:47:49.303Z,18.58
2022-11-29T00:50:17.044Z,21.88
2022-11-29T00:52:44.393Z,19.00
2022-11-29T00:55:11.897Z,18.42
2022-11-29T00:57:39.704Z,18.83
2022-11-29T01:00:07.565Z,17.70
2022-11-29T01:02:35.431Z,21.75
2022-11-29T01:05:03.244Z,20.05
2022-11-29T01:07:30.629Z,19.50
2022-11-29T01:09:58.043Z,21.42
2022-11-29T01:12:25.497Z,19.33
2022-11-29T01:14:52.872Z,20.27
2022-11-29T01:17:20.384Z,17.88
2022-11-29T01:19:50.834Z,20.10
2022-11-29T01:22:18.853Z,21.13
2022-11-29T01:24:46.547Z,21.02
2022-11-29T01:27:14.454Z,19.20
2022-11-29T01:29:41.897Z,16.35
2022-11-29T01:32:09.594Z,18.02
2022-11-29T01:34:38.455Z,16.70
2022-11-29T01:37:05.884Z,18.67
2022-11-29T01:39:33.550Z,18.83
2022-11-29T01:42:02.479Z,21.50
2022-11-29T01:44:29.875Z,21.48
2022-11-29T01:46:58.004Z,18.63
2022-11-29T01:49:28.624Z,20.92
2022-11-29T01:51:59.734Z,22.95
2022-11-29T01:54:27.857Z,20.10
2022-11-29T01:56:55.434Z,19.90
2022-11-29T01:59:28.954Z,19.02
2022-11-29T02:02:05.049Z,19.67
2022-11-29T02:04:33.526Z,21.98
2022-11-29T02:07:01.317Z,19.05
2022-11-29T02:09:29.207Z,18.92
2022-11-29T02:12:15.339Z,19.88
2022-11-29T02:15:02.370Z,17.73
2022-11-29T02:17:33.047Z,20.17
2022-11-29T02:20:19.005Z,19.77
2022-11-29T02:22:58.566Z,19.83
2022-11-29T02:25:44.864Z,19.65
2022-11-29T02:28:31.289Z,16.65
2022-11-29T02:31:05.361Z,19.02
2022-11-29T02:33:38.935Z,20.95
2022-11-29T02:36:25.218Z,18.73
2022-11-29T02:39:03.649Z,20.33
2022-11-29T02:41:49.617Z,22.45
2022-11-29T02:44:29.449Z,19.80
2022-11-29T02:46:59.917Z,19.98
2022-11-29T02:49:30.624Z,24.73
2022-11-29T02:52:19.696Z,19.20
2022-11-29T02:54:57.907Z,19.10
2022-11-29T02:57:30.773Z,18.33
2022-11-29T03:00:02.515Z,21.42
2022-11-29T03:02:39.964Z,16.65
2022-11-29T03:05:18.459Z,18.88
2022-11-29T03:07:46.008Z,18.23
2022-11-29T03:10:31.974Z,17.77
2022-11-29T03:12:59.999Z,21.08
2022-11-29T03:15:32.649Z,19.90
2022-11-29T03:18:03.081Z,20.77
2022-11-29T03:20:30.594Z,18.00
2022-11-29T03:23:11.058Z,19.33
2022-11-29T03:25:38.565Z,18.90
2022-11-29T03:28:12.464Z,18.08
2022-11-29T03:30:42.195Z,19.27
2022-11-29T03:33:23.916Z,19.92
2022-11-29T03:35:59.385Z,18.30
2022-11-29T03:38:46.554Z,19.25
2022-11-29T03:41:16.937Z,17.33
2022-11-29T03:43:48.204Z,22.50
2022-11-29T03:46:24.674Z,16.30
2022-11-29T03:49:03.898Z,18.92
2022-11-29T03:51:37.744Z,16.30
2022-11-29T03:54:11.096Z,17.02
2022-11-29T03:56:40.495Z,18.87
2022-11-29T03:59:26.614Z,20.08
2022-11-29T04:02:13.052Z,16.70
2022-11-29T04:04:56.723Z,22.38
2022-11-29T04:07:33.636Z,17.30
2022-11-29T04:10:07.249Z,16.70
2022-11-29T04:12:46.197Z,18.35
2022-11-29T04:15:22.744Z,19.00
2022-11-29T04:18:03.304Z,19.83
2022-11-29T04:20:34.939Z,19.25
2022-11-29T04:23:25.498Z,16.25
2022-11-29T04:25:53.327Z,17.40
2022-11-29T04:28:34.324Z,18.88
2022-11-29T04:31:12.874Z,19.02
2022-11-29T04:33:46.644Z,17.33
2022-11-29T04:36:14.105Z,19.98
2022-11-29T04:39:00.384Z,21.25
2022-11-29T04:41:39.912Z,20.80
2022-11-29T04:44:23.834Z,19.63
2022-11-29T04:46:51.463Z,19.35
2022-11-29T04:49:37.974Z,19.25
2022-11-29T04:52:21.024Z,23.63
2022-11-29T04:54:53.144Z,24.45
2022-11-29T04:57:21.027Z,22.00
2022-11-29T05:00:01.128Z,23.77
2022-11-29T05:02:38.131Z,22.10
2022-11-29T05:05:25.019Z,22.20
2022-11-29T05:08:11.556Z,23.88
2022-11-29T05:10:57.577Z,21.77
2022-11-29T05:13:50.813Z,20.40
2022-11-29T05:16:33.104Z,22.73
2022-11-29T05:19:16.374Z,22.25
2022-11-29T05:22:02.757Z,22.95
2022-11-29T05:24:30.436Z,24.42
2022-11-29T05:27:01.026Z,26.90
2022-11-29T05:29:46.684Z,24.13
2022-11-29T05:32:23.225Z,23.13
2022-11-29T05:35:09.513Z,25.52
2022-11-29T05:37:45.483Z,23.73
2022-11-29T05:40:19.136Z,27.95
2022-11-29T05:43:05.178Z,25.73
2022-11-29T05:45:32.745Z,25.85
2022-11-29T05:48:03.244Z,24.77
2022-11-29T05:50:39.644Z,26.50
2022-11-29T05:53:23.097Z,25.05
2022-11-29T05:55:50.433Z,24.10
2022-11-29T05:58:17.804Z,28.75
2022-11-29T06:00:50.986Z,24.98
2022-11-29T06:03:35.876Z,24.30
2022-11-29T06:06:41.927Z,26.13
2022-11-29T06:09:22.948Z,23.65
2022-11-29T06:11:53.063Z,25.23
2022-11-29T06:14:43.840Z,26.88
2022-11-29T06:17:35.723Z,28.30
2022-11-29T06:20:20.984Z,26.27
2022-11-29T06:22:49.554Z,24.58
2022-11-29T06:25:29.534Z,27.90
2022-11-29T06:28:02.405Z,24.50
2022-11-29T06:30:36.567Z,22.13
2022-11-29T06:33:11.729Z,25.55
2022-11-29T06:35:46.184Z,29.38
2022-11-29T06:38:16.674Z,22.15
2022-11-29T06:40:44.474Z,30.13
2022-11-29T06:43:12.327Z,25.08
2022-11-29T06:45:42.647Z,24.95
2022-11-29T06:51:50.315Z,23.05
2022-11-29T06:54:25.326Z,27.50
2022-11-29T06:57:11.286Z,25.83
2022-11-29T06:59:44.791Z,27.23
2022-11-29T07:02:35.707Z,26.55
2022-11-29T07:05:21.923Z,23.65
2022-11-29T07:07:49.702Z,23.05
2022-11-29T07:10:18.445Z,26.00
2022-11-29T07:12:47.364Z,23.63
2022-11-29T07:15:24.126Z,26.98
2022-11-29T07:18:13.676Z,27.80
2022-11-29T07:20:53.102Z,26.73
2022-11-29T07:23:47.102Z,25.55
2022-11-29T07:26:42.240Z,26.33
2022-11-29T07:29:28.693Z,25.50
2022-11-29T07:32:05.498Z,27.00
2022-11-29T07:34:51.868Z,26.02
2022-11-29T07:37:25.657Z,26.20
2022-11-29T07:40:13.483Z,33.40
2022-11-29T07:43:04.864Z,29.05
2022-11-29T07:45:33.472Z,31.45
2022-11-29T07:48:02.613Z,31.02
2022-11-29T07:50:30.855Z,29.45
2022-11-29T07:52:58.638Z,28.67
2022-11-29T07:55:27.477Z,29.30
2022-11-29T07:57:56.409Z,26.55
2022-11-29T08:00:23.797Z,36.13
2022-11-29T08:02:51.812Z,30.88
2022-11-29T08:05:19.589Z,32.45
2022-11-29T08:07:48.363Z,33.97
2022-11-29T08:10:17.415Z,35.72
2022-11-29T08:12:50.612Z,29.55
2022-11-29T08:15:20.728Z,30.13
2022-11-29T08:17:48.593Z,28.92
2022-11-29T08:20:17.179Z,29.98
2022-11-29T08:22:44.712Z,38.15
2022-11-29T08:25:15.278Z,31.98
2022-11-29T08:27:42.641Z,31.83
2022-11-29T08:30:10.708Z,31.90
2022-11-29T08:32:38.192Z,31.52
2022-11-29T08:35:05.816Z,29.13
2022-11-29T08:37:34.555Z,31.80
2022-11-29T08:40:05.117Z,31.02
2022-11-29T08:42:32.681Z,28.05
2022-11-29T08:45:00.211Z,29.52
2022-11-29T08:47:36.785Z,32.80
2022-11-29T08:50:14.549Z,31.20
2022-11-29T08:53:05.492Z,31.17
2022-11-29T08:55:34.365Z,33.25
2022-11-29T08:58:06.886Z,35.28
2022-11-29T09:00:34.806Z,32.00
2022-11-29T09:03:21.853Z,34.17
2022-11-29T09:05:49.300Z,30.70
2022-11-29T09:08:16.906Z,31.15
2022-11-29T09:10:45.393Z,31.63
2022-11-29T09:13:12.819Z,33.55
2022-11-29T09:15:42.444Z,34.00
2022-11-29T09:18:13.767Z,31.40
2022-11-29T09:20:46.203Z,29.10
2022-11-29T09:23:16.112Z,33.45
2022-11-29T09:25:52.624Z,27.88
2022-11-29T09:28:23.024Z,31.08
2022-11-29T09:30:54.301Z,29.38
2022-11-29T09:33:25.179Z,29.73
2022-11-29T09:36:01.364Z,32.78
2022-11-29T09:38:31.376Z,29.10
2022-11-29T09:41:08.504Z,28.05
2022-11-29T09:44:00.436Z,27.67
2022-11-29T09:49:41.364Z,30.15
2022-11-29T09:52:29.917Z,25.00
2022-11-29T09:55:06.371Z,25.02
2022-11-29T09:57:36.424Z,28.65
2022-11-29T10:00:08.703Z,29.23
2022-11-29T10:02:48.329Z,26.70
2022-11-29T10:05:26.396Z,30.40
2022-11-29T10:08:02.646Z,30.17
2022-11-29T10:10:41.584Z,30.13
2022-11-29T10:13:35.072Z,31.00
2022-11-29T10:16:38.844Z,29.15
2022-11-29T10:19:14.046Z,27.95
2022-11-29T10:21:44.757Z,29.30
2022-11-29T10:24:18.369Z,29.15
2022-11-29T10:26:49.796Z,29.73
2022-11-29T10:29:19.510Z,34.10
2022-11-29T10:31:52.524Z,33.80
2022-11-29T10:34:23.632Z,28.35
2022-11-29T10:36:55.911Z,29.42
2022-11-29T10:39:39.368Z,29.42
2022-11-29T10:42:30.151Z,33.08
2022-11-29T10:44:57.742Z,34.22
2022-11-29T10:47:25.557Z,28.35
2022-11-29T10:49:53.151Z,28.65
2022-11-29T10:52:22.427Z,36.03
2022-11-29T10:54:50.792Z,31.92
2022-11-29T10:57:22.551Z,30.95
2022-11-29T11:00:05.016Z,29.95
2022-11-29T11:02:35.392Z,27.55
2022-11-29T11:05:03.296Z,28.13
2022-11-29T11:07:35.890Z,31.02
2022-11-29T11:10:06.513Z,26.33
2022-11-29T11:12:35.153Z,28.55
2022-11-29T11:15:17.433Z,28.33
2022-11-29T11:17:57.110Z,29.48
2022-11-29T11:20:25.327Z,30.45
2022-11-29T11:23:03.921Z,29.77
2022-11-29T11:25:35.226Z,27.48
2022-11-29T11:28:17.728Z,27.30
2022-11-29T11:30:52.772Z,29.42
2022-11-29T11:33:23.227Z,29.35
2022-11-29T11:36:05.050Z,27.80
2022-11-29T11:38:33.142Z,26.65
2022-11-29T11:41:14.443Z,29.88
2022-11-29T11:43:41.989Z,27.30
2022-11-29T11:46:10.853Z,26.48
2022-11-29T11:48:42.588Z,27.92
2022-11-29T11:51:15.055Z,31.90
2022-11-29T11:53:44.448Z,24.95
2022-11-29T11:56:14.002Z,26.17
2022-11-29T11:58:44.209Z,26.70
2022-11-29T12:01:31.829Z,31.33
2022-11-29T12:04:07.992Z,29.20
2022-11-29T12:06:41.843Z,27.00
2022-11-29T12:09:10.327Z,27.45
2022-11-29T12:12:13.134Z,30.15
2022-11-29T12:14:44.866Z,30.77
2022-11-29T12:17:20.201Z,29.15
2022-11-29T12:19:54.834Z,27.25
2022-11-29T12:22:27.946Z,25.85
2022-11-29T12:25:01.364Z,24.45
2022-11-29T12:27:28.742Z,28.20
2022-11-29T12:29:57.167Z,28.67
2022-11-29T12:32:31.257Z,32.53
2022-11-29T12:35:16.080Z,28.02
2022-11-29T12:37:56.685Z,35.00
2022-11-29T12:40:29.382Z,29.10
2022-11-29T12:43:19.558Z,32.75
2022-11-29T12:45:54.859Z,30.13
2022-11-29T12:48:41.042Z,30.70
2022-11-29T12:51:14.588Z,29.92
2022-11-29T12:53:42.143Z,30.05
2022-11-29T12:56:27.172Z,30.15
2022-11-29T12:58:58.561Z,30.45
2022-11-29T13:01:48.771Z,31.13
2022-11-29T13:04:22.139Z,26.30
2022-11-29T13:06:58.723Z,30.60
2022-11-29T13:09:35.178Z,29.55
2022-11-29T13:12:06.328Z,26.92
2022-11-29T13:14:44.111Z,29.90
2022-11-29T13:17:26.458Z,28.35
2022-11-29T13:19:59.691Z,31.10
2022-11-29T13:22:42.677Z,26.30
2022-11-29T13:25:16.117Z,26.95
2022-11-29T13:27:45.909Z,26.63
2022-11-29T13:30:17.125Z,25.90
2022-11-29T13:32:50.848Z,26.80
2022-11-29T13:35:38.818Z,29.75
2022-11-29T13:38:14.826Z,25.48
2022-11-29T13:40:52.864Z,27.45
2022-11-29T13:43:23.378Z,32.30
2022-11-29T13:46:11.725Z,28.52
2022-11-29T13:48:49.743Z,23.75
2022-11-29T13:51:41.447Z,23.35
2022-11-29T13:54:29.883Z,25.95
2022-11-29T13:57:07.763Z,22.83
2022-11-29T13:59:36.985Z,25.10
2022-11-29T14:02:05.693Z,25.55
2022-11-29T14:04:38.579Z,24.63
2022-11-29T14:07:08.304Z,28.27
2022-11-29T14:09:38.798Z,29.33
2022-11-29T14:12:25.227Z,25.05
2022-11-29T14:14:53.074Z,23.83
2022-11-29T14:17:36.059Z,23.85
2022-11-29T14:20:22.210Z,27.67
2022-11-29T14:23:05.247Z,25.05
2022-11-29T14:25:51.246Z,27.63
2022-11-29T14:28:19.374Z,27.55
2022-11-29T14:30:52.674Z,31.25
2022-11-29T14:33:35.750Z,28.83
2022-11-29T14:36:15.343Z,26.60
2022-11-29T14:38:45.961Z,26.05
2022-11-29T14:41:36.852Z,27.88
2022-11-29T14:44:05.973Z,26.98
2022-11-29T14:46:34.204Z,34.97
2022-11-29T14:49:02.682Z,30.55
2022-11-29T14:51:34.749Z,37.10
2022-11-29T14:54:05.486Z,29.90
2022-11-29T14:56:33.193Z,27.65
2022-11-29T14:59:19.599Z,34.08
2022-11-29T15:01:47.476Z,32.85
2022-11-29T15:04:16.335Z,32.95
2022-11-29T15:06:47.616Z,36.17
2022-11-29T15:09:22.233Z,35.47
2022-11-29T15:12:00.440Z,31.10
2022-11-29T15:14:48.493Z,28.50
2022-11-29T15:17:34.369Z,29.52
2022-11-29T15:20:28.237Z,29.13
2022-11-29T15:22:58.830Z,30.47
2022-11-29T15:25:32.096Z,30.42
2022-11-29T15:28:00.834Z,30.37
2022-11-29T15:30:34.619Z,36.67
2022-11-29T15:33:04.189Z,36.67
2022-11-29T15:35:33.003Z,30.52
2022-11-29T15:38:01.387Z,34.40
2022-11-29T15:40:36.057Z,33.42
2022-11-29T15:43:05.500Z,42.92
2022-11-29T15:45:34.809Z,34.80
2022-11-29T15:48:12.995Z,36.78
2022-11-29T15:50:42.564Z,31.10
2022-11-29T15:53:13.084Z,36.45
2022-11-29T15:55:40.759Z,33.35
2022-11-29T15:58:11.980Z,32.28
2022-11-29T16:00:39.736Z,32.75
2022-11-29T16:03:08.503Z,34.33
2022-11-29T16:05:37.539Z,31.52
2022-11-29T16:08:06.952Z,36.97
2022-11-29T16:10:35.445Z,35.65
2022-11-29T16:13:07.831Z,33.88
2022-11-29T16:15:39.656Z,31.95
2022-11-29T16:18:13.185Z,32.50
2022-11-29T16:20:41.148Z,37.67
2022-11-29T16:23:13.662Z,31.60
2022-11-29T16:26:00.214Z,35.72
2022-11-29T16:28:31.109Z,30.83
2022-11-29T16:31:00.323Z,33.38
2022-11-29T16:33:28.304Z,36.40
2022-11-29T16:36:06.319Z,35.60
2022-11-29T16:38:34.051Z,41.25
2022-11-29T16:41:03.004Z,198.52
2022-11-29T16:43:45.615Z,95.88
2022-11-29T16:46:22.164Z,44.85
2022-11-29T16:48:50.863Z,44.05
2022-11-29T16:51:25.176Z,38.60
2022-11-29T16:56:28.939Z,36.28
2022-11-29T16:59:17.169Z,39.38
2022-11-29T17:01:45.594Z,37.22
2022-11-29T17:04:13.184Z,59.67
2022-11-29T17:06:52.597Z,37.03
2022-11-29T17:09:35.194Z,36.72
2022-11-29T17:12:03.416Z,36.13
2022-11-29T17:14:31.996Z,41.85
2022-11-29T17:17:02.980Z,41.60
2022-11-29T17:19:31.234Z,40.28
2022-11-29T17:21:58.835Z,35.63
2022-11-29T17:24:26.427Z,39.97
2022-11-29T17:26:53.947Z,39.13
2022-11-29T17:29:21.476Z,38.00
2022-11-29T17:31:50.695Z,39.28
2022-11-29T17:34:18.504Z,38.22
2022-11-29T17:36:46.144Z,37.10
2022-11-29T17:39:15.840Z,38.25
2022-11-29T17:41:43.559Z,39.58
2022-11-29T17:44:11.066Z,38.83
2022-11-29T17:46:38.648Z,38.45
2022-11-29T17:49:07.467Z,42.22
2022-11-29T17:51:53.922Z,36.92
2022-11-29T17:54:22.862Z,37.90
2022-11-29T17:56:50.715Z,37.83
2022-11-29T17:59:20.609Z,43.55
2022-11-29T18:01:48.320Z,35.17
2022-11-29T18:04:16.518Z,40.22
2022-11-29T18:06:44.340Z,38.00
2022-11-29T18:09:13.137Z,41.10
2022-11-29T18:11:49.998Z,61.88
2022-11-29T18:14:19.553Z,55.45
2022-11-29T18:16:47.268Z,68.35
2022-11-29T18:19:16.372Z,48.17
2022-11-29T18:21:43.984Z,50.53
2022-11-29T18:24:11.745Z,38.42
2022-11-29T18:26:39.998Z,41.20
2022-11-29T18:29:07.823Z,41.45
2022-11-29T18:31:37.126Z,40.33
2022-11-29T18:34:12.056Z,44.58
2022-11-29T18:36:43.170Z,41.28
2022-11-29T18:39:14.269Z,51.15
2022-11-29T18:41:43.237Z,48.28
2022-11-29T18:44:11.956Z,47.50
2022-11-29T18:46:40.424Z,47.95
2022-11-29T18:49:09.365Z,50.97
2022-11-29T18:51:37.709Z,42.80
2022-11-29T18:54:06.114Z,48.33
2022-11-29T18:56:34.636Z,41.58
2022-11-29T18:59:12.256Z,40.08
2022-11-29T19:01:42.539Z,53.53
2022-11-29T19:04:14.339Z,41.20
2022-11-29T19:06:42.532Z,41.40
2022-11-29T19:09:13.407Z,35.00
2022-11-29T19:11:41.184Z,40.38
2022-11-29T19:14:11.762Z,40.72
2022-11-29T19:16:40.235Z,42.20
2022-11-29T19:19:07.674Z,41.20
2022-11-29T19:21:35.177Z,44.63
2022-11-29T19:24:04.012Z,47.03
2022-11-29T19:26:32.045Z,44.63
2022-11-29T19:29:00.711Z,45.47
2022-11-29T19:31:28.401Z,45.38
2022-11-29T19:33:56.026Z,41.80
2022-11-29T19:36:25.146Z,47.40
2022-11-29T19:38:54.329Z,44.10
2022-11-29T19:41:21.998Z,45.00
2022-11-29T19:43:49.906Z,45.45
2022-11-29T19:46:19.093Z,40.95
2022-11-29T19:48:47.075Z,40.33
2022-11-29T19:51:17.797Z,38.42
2022-11-29T19:53:46.636Z,39.95
2022-11-29T19:56:15.714Z,42.38
2022-11-29T19:58:43.765Z,37.80
2022-11-29T20:01:13.127Z,38.03
2022-11-29T20:03:41.015Z,38.17
2022-11-29T20:06:09.489Z,33.72
2022-11-29T20:08:37.687Z,42.85
2022-11-29T20:11:09.906Z,35.97
2022-11-29T20:13:38.197Z,34.65
2022-11-29T20:16:06.949Z,35.50
2022-11-29T20:18:34.744Z,37.75
2022-11-29T20:21:10.884Z,33.47
2022-11-29T20:23:39.213Z,32.70
2022-11-29T20:26:09.894Z,34.45
2022-11-29T20:28:37.450Z,34.67
2022-11-29T20:31:13.186Z,36.03
2022-11-29T20:33:44.585Z,35.08
2022-11-29T20:36:14.894Z,34.92
2022-11-29T20:38:47.385Z,33.90
2022-11-29T20:41:33.629Z,37.35
2022-11-29T20:44:02.874Z,35.60
2022-11-29T20:46:31.136Z,35.50
2022-11-29T20:49:04.740Z,41.45
2022-11-29T20:51:39.226Z,40.72
2022-11-29T20:54:06.755Z,35.33
2022-11-29T20:56:34.598Z,36.80
2022-11-29T20:59:02.094Z,34.70
2022-11-29T21:01:30.006Z,39.20
2022-11-29T21:03:58.383Z,37.83
2022-11-29T21:06:25.947Z,31.48
2022-11-29T21:08:54.518Z,37.83
2022-11-29T21:11:22.180Z,37.38
2022-11-29T21:13:50.004Z,38.40
2022-11-29T21:16:17.890Z,36.22
2022-11-29T21:18:45.515Z,37.15
2022-11-29T21:21:13.165Z,34.53
2022-11-29T21:23:43.714Z,35.60
2022-11-29T21:26:17.024Z,38.17
2022-11-29T21:28:57.464Z,40.67
2022-11-29T21:31:25.262Z,36.22
2022-11-29T21:33:52.940Z,42.17
2022-11-29T21:36:20.705Z,40.80
2022-11-29T21:38:53.893Z,38.20
2022-11-29T21:44:06.063Z,39.20
2022-11-29T21:46:34.672Z,37.53
2022-11-29T21:49:02.206Z,36.80
2022-11-29T21:51:29.662Z,40.55
2022-11-29T21:53:57.046Z,37.38
2022-11-29T21:56:24.543Z,38.50
2022-11-29T21:58:52.038Z,36.95
2022-11-29T22:01:20.326Z,37.90
2022-11-29T22:03:48.504Z,39.00
2022-11-29T22:06:21.107Z,37.55
2022-11-29T22:08:49.435Z,39.55
2022-11-29T22:11:31.183Z,37.95
2022-11-29T22:14:15.255Z,36.55
2022-11-29T22:16:48.945Z,48.17
2022-11-29T22:19:36.754Z,44.35
2022-11-29T22:22:06.124Z,38.83
2022-11-29T22:24:35.477Z,40.83
2022-11-29T22:27:03.332Z,41.88
2022-11-29T22:29:30.698Z,37.95
2022-11-29T22:31:59.674Z,32.00
2022-11-29T22:34:27.345Z,44.80
2022-11-29T22:36:55.081Z,40.90
2022-11-29T22:39:22.877Z,42.70
2022-11-29T22:41:54.183Z,40.00
2022-11-29T22:44:22.274Z,40.53
2022-11-29T22:46:49.893Z,38.58
2022-11-29T22:49:17.382Z,40.75
2022-11-29T22:51:44.728Z,41.55
2022-11-29T22:54:15.560Z,40.75
2022-11-29T22:56:43.969Z,43.40
2022-11-29T22:59:11.714Z,43.58
2022-11-29T23:01:40.055Z,43.95
2022-11-29T23:04:08.337Z,45.90
2022-11-29T23:06:37.119Z,41.90
2022-11-29T23:09:10.802Z,41.33
2022-11-29T23:11:38.787Z,44.33
2022-11-29T23:14:06.297Z,41.30
2022-11-29T23:16:34.328Z,46.50
2022-11-29T23:19:02.207Z,42.70
2022-11-29T23:21:30.966Z,40.15
2022-11-29T23:24:01.739Z,42.22
2022-11-29T23:26:29.079Z,38.95
2022-11-29T23:28:56.895Z,43.97
2022-11-29T23:31:24.993Z,41.47
2022-11-29T23:33:52.494Z,44.35
2022-11-29T23:36:20.216Z,43.60
2022-11-29T23:38:48.566Z,41.95
2022-11-29T23:41:16.380Z,41.38
2022-11-29T23:43:44.005Z,40.85
2022-11-29T23:46:14.084Z,41.60
2022-11-29T23:48:41.978Z,43.05
2022-11-29T23:51:09.695Z,42.13
2022-11-29T23:53:37.204Z,39.47
2022-11-29T23:56:06.348Z,45.83
2022-11-29T23:58:34.678Z,46.00
